Time;durP1;ratioP1;P1;durP2;ratioP2;P2;SDS_P1;SDS_P2;PMS_P1;PMS_P2;Temp;Humidity;BMP_temperature;BMP_pressure;BME280_temperature;BME280_humidity;BME280_pressure;Samples;Min_cycle;Max_cycle;Signal;HPM_P1;HPM_P2
2023/05/09 00:00:09;;;;;;;15.57;14.17;;;16.10;99.90;;;;;;2614986;54;20138;-79
2023/05/09 00:05:57;;;;;;;14.90;13.50;;;15.90;99.90;;;;;;2615261;54;20442;-79
2023/05/09 00:11:45;;;;;;;16.27;14.77;;;15.80;99.90;;;;;;2613839;54;20154;-79
2023/05/09 00:17:33;;;;;;;15.97;14.43;;;15.70;99.90;;;;;;2615376;54;20150;-80
2023/05/09 00:23:21;;;;;;;17.00;15.40;;;15.70;99.90;;;;;;2614144;54;20423;-80
2023/05/09 00:29:10;;;;;;;18.17;16.30;;;15.60;99.90;;;;;;2618305;54;20134;-80
2023/05/09 00:34:58;;;;;;;19.13;17.13;;;15.60;99.90;;;;;;2618708;39;20497;-79
2023/05/09 00:40:46;;;;;;;19.53;17.53;;;15.60;99.90;;;;;;2617170;54;20665;-79
2023/05/09 00:46:34;;;;;;;19.67;17.57;;;15.50;99.90;;;;;;2616274;54;20126;-79
2023/05/09 00:52:24;;;;;;;20.33;17.07;;;15.30;99.90;;;;;;2614887;54;20395;-77
2023/05/09 00:58:12;;;;;;;21.50;18.80;;;15.20;99.90;;;;;;2616204;39;20783;-78
2023/05/09 01:01:01;;;;;;;18.87;16.97;;;15.00;99.90;;;;;;2615019;54;20422;-79
2023/05/09 01:03:26;;;;;;;21.73;19.10;;;15.00;99.90;;;;;;2613036;54;20427;-79
2023/05/09 01:09:36;;;;;;;18.20;16.40;;;14.80;99.90;;;;;;2614530;54;20147;-80
2023/05/09 01:21:46;;;;;;;20.27;17.30;;;14.80;99.90;;;;;;2615176;54;20399;-80
2023/05/09 01:34:06;;;;;;;20.13;18.03;;;14.60;99.90;;;;;;2616648;54;20362;-79
2023/05/09 01:39:59;;;;;;;18.97;17.00;;;14.60;99.90;;;;;;2616883;54;20398;-80
2023/05/09 01:45:48;;;;;;;20.87;18.67;;;14.70;99.90;;;;;;2619660;54;20398;-80
2023/05/09 01:51:37;;;;;;;23.20;20.90;;;14.80;99.90;;;;;;2621066;54;20418;-80
2023/05/09 01:57:26;;;;;;;23.30;20.80;;;14.90;99.90;;;;;;2629487;54;20534;-79
2023/05/09 02:06:38;;;;;;;23.07;20.50;;;14.90;99.90;;;;;;2628248;54;20426;-80
2023/05/09 02:12:26;;;;;;;22.73;20.33;;;14.90;99.90;;;;;;2629201;54;20431;-80
2023/05/09 02:18:15;;;;;;;22.13;19.70;;;14.70;99.90;;;;;;2614692;54;20110;-81
2023/05/09 02:24:03;;;;;;;20.70;18.77;;;14.50;99.90;;;;;;2615314;54;20407;-81
2023/05/09 02:29:56;;;;;;;24.27;21.93;;;14.50;99.90;;;;;;2615333;54;20411;-79
2023/05/09 02:35:45;;;;;;;21.37;19.30;;;14.50;99.90;;;;;;2616316;39;20771;-78
2023/05/09 02:41:33;;;;;;;23.60;21.27;;;14.40;99.90;;;;;;2616241;46;20422;-77
2023/05/09 02:47:21;;;;;;;24.30;21.60;;;14.40;99.90;;;;;;2615324;54;21029;-77
2023/05/09 02:53:09;;;;;;;23.87;21.53;;;14.50;99.90;;;;;;2614921;54;20946;-77
2023/05/09 02:58:57;;;;;;;23.53;21.17;;;14.60;99.90;;;;;;2614820;54;20162;-79
2023/05/09 03:02:02;;;;;;;23.43;21.00;;;14.60;99.90;;;;;;2614881;47;20811;-79
2023/05/09 03:04:27;;;;;;;23.30;20.83;;;14.70;99.90;;;;;;2614443;47;20166;-77
2023/05/09 03:10:15;;;;;;;23.27;20.97;;;14.80;99.90;;;;;;2615353;54;20215;-77
2023/05/09 03:16:04;;;;;;;22.23;19.83;;;14.90;99.90;;;;;;2615555;54;20129;-78
2023/05/09 03:21:52;;;;;;;21.30;19.00;;;15.00;99.90;;;;;;2614290;54;20387;-79
2023/05/09 03:27:39;;;;;;;22.77;20.37;;;15.10;99.90;;;;;;2614945;54;20158;-80
2023/05/09 03:33:27;;;;;;;30.20;20.00;;;15.10;99.90;;;;;;2613381;54;20953;-79
2023/05/09 03:39:15;;;;;;;22.70;19.63;;;15.20;99.90;;;;;;2613788;54;20123;-80
2023/05/09 03:45:03;;;;;;;24.27;20.90;;;15.20;99.90;;;;;;2614425;54;20239;-79
2023/05/09 03:50:51;;;;;;;23.67;21.17;;;15.20;99.90;;;;;;2614139;54;20399;-79
2023/05/09 03:56:39;;;;;;;25.67;22.90;;;15.20;99.90;;;;;;2614584;54;20496;-80
2023/05/09 04:06:36;;;;;;;24.93;22.33;;;15.30;99.90;;;;;;2615181;54;20403;-77
2023/05/09 04:09:41;;;;;;;23.30;20.87;;;15.30;99.90;;;;;;2611834;47;20458;-80
2023/05/09 04:12:06;;;;;;;27.73;22.03;;;15.30;99.90;;;;;;2615162;54;20434;-80
2023/05/09 04:17:54;;;;;;;27.23;24.40;;;15.40;99.90;;;;;;2613943;54;20243;-80
2023/05/09 04:23:42;;;;;;;31.30;24.83;;;15.30;99.90;;;;;;2615108;54;20130;-80
2023/05/09 04:29:30;;;;;;;27.60;24.00;;;15.30;99.90;;;;;;2615123;54;20402;-80
2023/05/09 04:35:18;;;;;;;29.40;23.37;;;15.30;99.90;;;;;;2614309;46;20418;-79
2023/05/09 04:41:06;;;;;;;28.30;25.17;;;15.30;99.90;;;;;;2614900;54;20427;-79
2023/05/09 04:46:54;;;;;;;28.00;24.93;;;15.30;99.90;;;;;;2615656;39;20551;-79
2023/05/09 04:52:41;;;;;;;26.93;23.00;;;15.40;99.90;;;;;;2614263;54;20162;-80
2023/05/09 04:58:29;;;;;;;31.20;25.80;;;15.50;99.90;;;;;;2615210;54;20135;-78
2023/05/09 05:04:18;;;;;;;39.20;26.77;;;15.40;99.90;;;;;;2615906;54;20459;-79
2023/05/09 05:10:06;;;;;;;31.53;24.77;;;15.40;99.90;;;;;;2615964;54;20135;-79
2023/05/09 05:15:53;;;;;;;34.10;27.00;;;15.70;99.90;;;;;;2616407;39;20768;-79
2023/05/09 05:21:41;;;;;;;33.87;27.17;;;15.60;99.90;;;;;;2614319;54;20161;-79
2023/05/09 05:27:30;;;;;;;29.90;24.40;;;15.50;99.90;;;;;;2614395;54;20126;-78
2023/05/09 05:33:17;;;;;;;30.70;26.70;;;15.90;99.90;;;;;;2613834;54;20403;-78
2023/05/09 05:39:05;;;;;;;35.03;26.23;;;15.90;99.90;;;;;;2614645;54;20143;-80
2023/05/09 05:44:53;;;;;;;31.80;25.37;;;16.10;99.90;;;;;;2617370;54;20167;-79
2023/05/09 05:50:41;;;;;;;34.20;26.70;;;16.20;99.90;;;;;;2616549;54;20200;-80
2023/05/09 05:56:28;;;;;;;28.13;25.07;;;16.60;99.90;;;;;;2615428;54;20162;-81
2023/05/09 06:12:39;;;;;;;29.90;26.70;;;16.90;99.90;;;;;;2609666;54;20402;-79
2023/05/09 06:18:26;;;;;;;27.77;25.03;;;16.60;99.90;;;;;;2606459;54;20448;-80
2023/05/09 06:24:14;;;;;;;26.20;23.47;;;16.60;99.90;;;;;;2611894;54;20142;-80
2023/05/09 06:30:01;;;;;;;27.33;24.73;;;17.00;99.90;;;;;;2612329;54;20264;-79
2023/05/09 06:35:49;;;;;;;25.63;23.07;;;17.00;99.90;;;;;;2610969;54;20134;-79
2023/05/09 06:41:37;;;;;;;23.87;21.43;;;17.20;99.90;;;;;;2612361;54;20436;-79
2023/05/09 06:47:25;;;;;;;22.60;20.50;;;18.30;99.90;;;;;;2614228;54;20718;-82
2023/05/09 06:53:12;;;;;;;23.20;20.80;;;18.60;99.90;;;;;;2613242;39;20221;-80
2023/05/09 06:59:00;;;;;;;22.27;20.37;;;19.10;99.90;;;;;;2613968;54;20142;-79
2023/05/09 07:02:03;;;;;;;22.90;21.00;;;19.20;99.90;;;;;;2611461;54;20503;-80
2023/05/09 07:08:03;;;;;;;22.50;20.60;;;19.00;99.90;;;;;;2614335;54;20462;-78
2023/05/09 07:13:52;;;;;;;20.90;19.00;;;18.40;99.90;;;;;;2617858;39;20793;-78
2023/05/09 07:19:40;;;;;;;21.37;19.40;;;18.60;99.90;;;;;;2617373;54;20407;-79
2023/05/09 07:25:28;;;;;;;16.83;15.23;;;18.30;99.90;;;;;;2626968;54;20439;-79
2023/05/09 07:31:16;;;;;;;18.67;16.80;;;18.60;99.90;;;;;;2628350;54;20387;-79
2023/05/09 07:37:04;;;;;;;18.47;16.77;;;18.60;99.90;;;;;;2625397;54;20133;-79
2023/05/09 07:42:53;;;;;;;16.40;15.20;;;19.10;99.90;;;;;;2627451;54;20134;-77
2023/05/09 07:48:42;;;;;;;17.00;15.70;;;20.00;99.90;;;;;;2623481;54;20420;-78
2023/05/09 07:54:30;;;;;;;17.23;15.73;;;20.30;99.90;;;;;;2626186;54;20149;-78
2023/05/09 08:00:22;;;;;;;17.43;16.03;;;20.30;99.90;;;;;;2620945;39;20384;-80
2023/05/09 08:03:34;;;;;;;18.00;16.60;;;20.10;99.90;;;;;;2618524;54;20431;-78
2023/05/09 08:05:59;;;;;;;16.77;15.47;;;20.20;99.90;;;;;;2617773;47;20455;-78
2023/05/09 08:11:48;;;;;;;16.93;15.53;;;20.60;99.90;;;;;;2620372;54;20154;-80
2023/05/09 08:17:36;;;;;;;17.03;15.80;;;20.40;99.90;;;;;;2614315;54;20395;-80
2023/05/09 08:23:25;;;;;;;16.30;14.93;;;20.60;99.90;;;;;;2612376;54;20139;-79
2023/05/09 08:29:14;;;;;;;17.47;16.33;;;20.50;99.90;;;;;;2613543;54;20415;-79
2023/05/09 08:35:01;;;;;;;15.83;14.70;;;21.30;99.90;;;;;;2614333;54;20387;-79
2023/05/09 08:40:49;;;;;;;15.90;14.53;;;21.00;99.90;;;;;;2615031;54;20129;-81
2023/05/09 08:46:40;;;;;;;17.27;15.87;;;20.30;99.90;;;;;;2614485;39;20363;-80
2023/05/09 08:52:32;;;;;;;16.43;15.33;;;20.90;99.90;;;;;;2612788;39;21005;-80
2023/05/09 08:58:21;;;;;;;14.40;13.50;;;21.20;99.90;;;;;;2614468;54;20395;-81
2023/05/09 09:08:04;;;;;;;13.67;12.70;;;21.10;99.90;;;;;;2613057;54;20415;-80
2023/05/09 09:13:52;;;;;;;14.77;13.87;;;20.20;99.90;;;;;;2609444;54;20408;-79
2023/05/09 09:19:43;;;;;;;15.10;14.30;;;21.50;99.90;;;;;;2614530;54;20395;-80
2023/05/09 09:25:30;;;;;;;15.50;14.70;;;22.30;99.70;;;;;;2615751;39;20755;-81
2023/05/09 09:31:24;;;;;;;15.27;14.47;;;22.60;92.40;;;;;;2612031;54;20122;-81
2023/05/09 09:43:46;;;;;;;15.53;14.73;;;22.20;83.80;;;;;;2614509;54;20408;-80
2023/05/09 09:49:33;;;;;;;15.20;14.40;;;21.90;83.30;;;;;;2613544;54;20131;-79
2023/05/09 09:55:23;;;;;;;16.70;15.80;;;22.80;69.30;;;;;;2612589;54;20250;-80
2023/05/09 10:01:19;;;;;;;16.50;15.60;;;23.00;64.20;;;;;;2614214;54;20397;-80
2023/05/09 10:07:09;;;;;;;17.80;16.70;;;23.70;58.00;;;;;;2610666;54;20399;-81
2023/05/09 10:12:59;;;;;;;16.87;15.83;;;23.30;54.20;;;;;;2610851;54;20435;-82
2023/05/09 10:18:48;;;;;;;17.50;16.40;;;23.00;57.50;;;;;;2610174;54;21662;-81
2023/05/09 10:37:28;;;;;;;16.23;15.43;;;22.80;55.50;;;;;;2613068;54;20430;-81
2023/05/09 10:43:16;;;;;;;15.43;14.53;;;23.40;52.10;;;;;;2615176;54;20454;-81
2023/05/09 10:49:06;;;;;;;16.83;16.00;;;22.90;51.40;;;;;;2614689;54;20382;-80
2023/05/09 11:01:05;;;;;;;15.63;14.40;;;21.70;59.40;;;;;;2614435;54;21114;-81
2023/05/09 11:10:19;;;;;;;15.70;14.80;;;23.00;52.70;;;;;;2613271;39;20734;-81
2023/05/09 11:16:10;;;;;;;16.70;15.60;;;23.20;41.80;;;;;;2613287;39;20836;-80
2023/05/09 11:22:01;;;;;;;14.80;14.10;;;22.60;47.40;;;;;;2612982;54;20414;-82
2023/05/09 11:27:49;;;;;;;14.53;13.77;;;22.60;42.90;;;;;;2612733;54;20929;-81
2023/05/09 11:33:38;;;;;;;13.90;13.20;;;22.60;47.30;;;;;;2612905;54;20434;-80
2023/05/09 11:39:26;;;;;;;13.60;12.90;;;22.80;47.10;;;;;;2614120;54;20941;-82
2023/05/09 11:45:16;;;;;;;13.70;12.90;;;22.90;38.40;;;;;;2613048;54;20415;-82
2023/05/09 11:51:03;;;;;;;13.60;12.47;;;23.20;37.50;;;;;;2613854;54;20403;-81
2023/05/09 11:56:51;;;;;;;13.90;13.10;;;23.80;29.80;;;;;;2613784;39;20514;-80
2023/05/09 12:02:39;;;;;;;13.70;13.00;;;22.90;31.20;;;;;;2613176;54;20170;-82
2023/05/09 12:05:49;;;;;;;13.63;12.93;;;23.30;30.30;;;;;;2613414;47;20432;-81
2023/05/09 12:08:15;;;;;;;13.80;13.00;;;23.50;29.80;;;;;;2613434;39;20534;-81
2023/05/09 12:14:04;;;;;;;13.40;12.80;;;23.50;32.50;;;;;;2614915;54;20391;-81
2023/05/09 12:19:52;;;;;;;13.47;12.87;;;23.10;30.80;;;;;;2615480;54;20479;-80
2023/05/09 12:32:05;;;;;;;15.03;14.30;;;23.30;34.50;;;;;;2613785;54;20415;-80
2023/05/09 12:37:57;;;;;;;13.73;13.13;;;23.10;32.80;;;;;;2613401;54;20370;-79
2023/05/09 12:43:47;;;;;;;14.63;13.97;;;22.90;37.90;;;;;;2611888;54;20395;-81
2023/05/09 12:49:36;;;;;;;14.63;13.93;;;23.30;38.40;;;;;;2613993;54;21042;-81
2023/05/09 12:55:23;;;;;;;15.20;14.47;;;22.90;36.00;;;;;;2614668;54;20423;-79
2023/05/09 13:01:11;;;;;;;14.93;14.23;;;23.20;38.00;;;;;;2613266;39;20592;-82
2023/05/09 13:10:27;;;;;;;14.70;13.93;;;23.10;36.30;;;;;;2611402;39;20910;-82
2023/05/09 13:16:15;;;;;;;13.77;13.07;;;23.30;29.00;;;;;;2609783;54;20453;-78
2023/05/09 13:22:03;;;;;;;13.63;12.77;;;22.80;30.10;;;;;;2611176;54;20126;-80
2023/05/09 13:27:51;;;;;;;13.63;12.93;;;22.80;31.30;;;;;;2613104;54;20134;-80
2023/05/09 13:33:39;;;;;;;14.40;13.80;;;22.70;30.90;;;;;;2614491;54;20123;-82
2023/05/09 13:39:27;;;;;;;14.40;13.50;;;22.30;34.50;;;;;;2619202;54;21072;-81
2023/05/09 13:45:15;;;;;;;14.70;14.00;;;23.30;34.50;;;;;;2619998;54;20434;-82
2023/05/09 13:51:05;;;;;;;14.03;13.43;;;22.90;34.50;;;;;;2627261;54;20186;-82
2023/05/09 13:56:53;;;;;;;12.63;12.13;;;22.00;36.50;;;;;;2628337;54;20422;-79
2023/05/09 14:02:41;;;;;;;14.77;13.63;;;22.00;40.50;;;;;;2629354;54;20139;-80
2023/05/09 14:05:46;;;;;;;13.60;12.83;;;22.30;41.60;;;;;;2629435;54;20396;-80
2023/05/09 14:08:12;;;;;;;12.77;12.03;;;22.20;41.90;;;;;;2627436;47;20162;-79
2023/05/09 14:14:00;;;;;;;14.23;13.10;;;21.50;60.20;;;;;;2624076;54;20149;-80
2023/05/09 14:19:49;;;;;;;11.97;11.27;;;20.40;99.90;;;;;;2627483;54;20146;-81
2023/05/09 14:22:16;;;;;;;13.30;12.30;;;20.00;99.90;;;;;;2622162;47;20432;-81
2023/05/09 14:24:42;;;;;;;12.00;11.10;;;19.50;99.90;;;;;;2617753;54;20151;-81
2023/05/09 14:30:29;;;;;;;11.77;10.97;;;19.40;99.90;;;;;;2617127;54;20158;-81
2023/05/09 14:36:18;;;;;;;13.00;11.90;;;18.80;99.90;;;;;;2614722;54;20134;-81
2023/05/09 14:42:10;;;;;;;15.43;13.93;;;18.60;99.90;;;;;;2614061;54;20423;-81
2023/05/09 14:47:58;;;;;;;15.10;13.70;;;18.80;99.90;;;;;;2612660;54;20391;-82
2023/05/09 14:53:46;;;;;;;14.50;13.30;;;18.40;99.90;;;;;;2611502;54;20439;-81
2023/05/09 14:59:34;;;;;;;16.40;15.00;;;18.50;99.90;;;;;;2611105;54;20133;-80
2023/05/09 15:05:22;;;;;;;14.83;13.43;;;18.30;99.90;;;;;;2613235;54;20400;-83
2023/05/09 15:11:10;;;;;;;20.70;15.73;;;18.00;99.90;;;;;;2613142;54;20181;-81
2023/05/09 15:14:31;;;;;;;14.87;13.60;;;17.70;99.90;;;;;;2614999;39;21190;-81
2023/05/09 15:20:19;;;;;;;16.97;15.27;;;17.80;99.90;;;;;;2612839;54;20391;-80
2023/05/09 15:26:07;;;;;;;19.60;17.53;;;18.00;99.90;;;;;;2613477;54;20130;-80
2023/05/09 15:31:55;;;;;;;19.73;17.73;;;17.90;99.90;;;;;;2614937;39;20836;-81
2023/05/09 15:37:43;;;;;;;20.70;18.47;;;17.60;99.90;;;;;;2612356;54;20134;-80
2023/05/09 15:43:31;;;;;;;21.13;18.83;;;17.20;99.90;;;;;;2614893;54;20423;-80
2023/05/09 15:49:20;;;;;;;21.27;18.80;;;16.60;99.90;;;;;;2614807;54;20162;-83
2023/05/09 15:55:09;;;;;;;22.73;18.83;;;16.30;99.90;;;;;;2611971;54;20957;-82
2023/05/09 16:00:57;;;;;;;17.87;15.53;;;16.40;99.90;;;;;;2613921;54;20484;-81
2023/05/09 16:06:46;;;;;;;18.33;16.43;;;16.20;99.90;;;;;;2615232;54;20150;-82
2023/05/09 16:09:49;;;;;;;17.50;15.70;;;16.10;99.90;;;;;;2611408;47;20445;-81
2023/05/09 16:15:53;;;;;;;19.90;16.67;;;16.10;99.90;;;;;;2612884;54;20459;-81
2023/05/09 16:21:44;;;;;;;17.93;16.03;;;16.00;99.90;;;;;;2609434;54;20414;-82
2023/05/09 16:27:32;;;;;;;24.80;17.60;;;16.20;99.90;;;;;;2623519;54;20394;-87
2023/05/09 16:33:20;;;;;;;21.83;19.50;;;16.00;99.90;;;;;;2628437;54;20106;-87
2023/05/09 16:39:07;;;;;;;19.17;17.07;;;16.00;99.90;;;;;;2626640;54;20119;-87
2023/05/09 16:44:56;;;;;;;21.07;18.87;;;16.00;99.90;;;;;;2620916;54;20383;-84
2023/05/09 16:50:45;;;;;;;23.67;19.60;;;16.00;99.90;;;;;;2617057;54;20992;-86
2023/05/09 16:56:33;;;;;;;22.77;18.63;;;15.90;99.90;;;;;;2614856;54;20375;-87
2023/05/09 17:02:21;;;;;;;19.90;17.83;;;15.90;99.90;;;;;;2620691;54;20422;-86
2023/05/09 17:08:09;;;;;;;20.33;17.40;;;16.00;99.90;;;;;;2623115;39;20620;-85
2023/05/09 17:11:21;;;;;;;20.13;18.00;;;16.00;99.90;;;;;;2621329;47;20427;-85
2023/05/09 17:13:47;;;;;;;18.70;16.40;;;16.00;99.90;;;;;;2618636;46;20174;-85
2023/05/09 17:19:36;;;;;;;20.57;17.10;;;15.90;99.90;;;;;;2610771;54;20201;-84
2023/05/09 17:25:24;;;;;;;21.13;17.73;;;15.90;99.90;;;;;;2611666;54;20402;-85
2023/05/09 17:31:12;;;;;;;18.53;16.53;;;15.90;99.90;;;;;;2612219;54;20336;-86
2023/05/09 17:37:01;;;;;;;24.40;21.73;;;15.80;99.90;;;;;;2613316;54;20371;-85
2023/05/09 17:42:50;;;;;;;31.07;23.33;;;15.80;99.90;;;;;;2615708;46;20848;-86
2023/05/09 17:48:37;;;;;;;25.50;22.20;;;15.70;99.90;;;;;;2613719;54;20189;-87
2023/05/09 17:54:26;;;;;;;29.43;21.00;;;15.60;99.90;;;;;;2614764;46;20588;-87
2023/05/09 18:00:14;;;;;;;20.87;17.37;;;15.50;99.90;;;;;;2613581;54;20418;-83
2023/05/09 18:06:02;;;;;;;16.70;14.53;;;15.40;99.90;;;;;;2614555;54;20985;-83
2023/05/09 18:15:49;;;;;;;16.77;13.30;;;15.30;99.90;;;;;;2613452;54;20391;-82
2023/05/09 18:21:38;;;;;;;14.47;12.97;;;15.20;99.90;;;;;;2613430;39;20807;-83
2023/05/09 18:27:26;;;;;;;18.30;12.83;;;15.20;99.90;;;;;;2614014;54;20407;-82
2023/05/09 18:33:15;;;;;;;10.40;8.53;;;15.10;99.90;;;;;;2615130;46;20150;-82
2023/05/09 18:39:03;;;;;;;10.90;7.57;;;15.00;99.90;;;;;;2615569;54;20479;-83
2023/05/09 18:44:51;;;;;;;7.60;5.50;;;14.80;99.90;;;;;;2612765;54;20697;-82
2023/05/09 18:50:38;;;;;;;5.53;3.67;;;14.70;99.90;;;;;;2612117;54;20130;-83
2023/05/09 18:56:26;;;;;;;5.00;3.70;;;14.70;99.90;;;;;;2615091;54;20665;-83
2023/05/09 19:02:14;;;;;;;3.40;3.10;;;14.60;99.90;;;;;;2614971;54;20174;-83
2023/05/09 19:08:02;;;;;;;4.97;4.00;;;14.60;99.90;;;;;;2612561;54;20162;-84
2023/05/09 19:14:27;;;;;;;4.60;3.27;;;14.60;99.90;;;;;;2614388;54;20458;-88
2023/05/09 19:17:09;;;;;;;8.60;5.10;;;14.60;99.90;;;;;;2623755;47;20428;-87
2023/05/09 19:22:58;;;;;;;4.00;3.50;;;14.50;99.90;;;;;;2618937;54;21035;-87
2023/05/09 19:28:46;;;;;;;4.10;3.10;;;14.40;99.90;;;;;;2617072;54;20387;-85
2023/05/09 19:34:34;;;;;;;4.33;3.77;;;14.40;99.90;;;;;;2614484;54;20122;-86
2023/05/09 19:40:21;;;;;;;4.47;2.93;;;14.30;99.90;;;;;;2611567;54;20167;-86
2023/05/09 19:46:09;;;;;;;4.87;3.23;;;14.30;99.90;;;;;;2613822;54;20648;-87
2023/05/09 19:51:57;;;;;;;4.57;2.90;;;14.10;99.90;;;;;;2616232;54;20138;-88
2023/05/09 19:57:45;;;;;;;4.30;3.80;;;14.20;99.90;;;;;;2617672;54;20129;-87
2023/05/09 20:03:37;;;;;;;5.13;3.70;;;14.20;99.90;;;;;;2616590;54;20391;-87
2023/05/09 20:09:25;;;;;;;3.87;2.80;;;14.10;99.90;;;;;;2615293;54;20397;-86
2023/05/09 20:12:37;;;;;;;5.30;4.00;;;14.20;99.90;;;;;;2614935;47;20412;-87
2023/05/09 20:15:05;;;;;;;6.50;4.40;;;14.20;99.90;;;;;;2614114;47;20193;-86
2023/05/09 20:20:53;;;;;;;6.67;4.60;;;14.10;99.90;;;;;;2614883;54;20469;-87
2023/05/09 20:26:41;;;;;;;8.23;5.10;;;14.20;99.90;;;;;;2616237;54;20406;-87
2023/05/09 20:32:29;;;;;;;8.10;5.47;;;14.20;99.90;;;;;;2616579;54;20628;-88
2023/05/09 20:38:18;;;;;;;6.93;5.33;;;14.20;99.90;;;;;;2616415;54;20423;-88
2023/05/09 20:44:06;;;;;;;8.70;6.20;;;14.20;99.90;;;;;;2616454;54;20399;-88
2023/05/09 20:49:54;;;;;;;9.07;6.70;;;14.20;99.90;;;;;;2617118;39;20519;-86
2023/05/09 20:55:42;;;;;;;10.07;7.17;;;14.30;99.90;;;;;;2619711;54;20395;-83
2023/05/09 21:01:34;;;;;;;8.93;6.70;;;14.20;99.90;;;;;;2628019;54;20122;-82
2023/05/09 21:07:21;;;;;;;6.03;5.10;;;14.20;99.90;;;;;;2611445;54;20350;-73
2023/05/09 21:13:09;;;;;;;13.20;4.50;;;13.90;99.90;;;;;;2609914;46;20165;-73
2023/05/09 21:19:01;;;;;;;7.10;5.00;;;13.70;99.90;;;;;;2613098;47;20858;-73
2023/05/09 21:24:49;;;;;;;7.10;4.40;;;13.70;99.90;;;;;;2612845;54;20364;-72
2023/05/09 21:30:37;;;;;;;9.93;4.30;;;13.70;99.90;;;;;;2613314;54;20463;-74
2023/05/09 21:36:25;;;;;;;4.17;3.20;;;13.60;99.90;;;;;;2613614;54;20187;-75
2023/05/09 21:42:12;;;;;;;4.20;3.37;;;13.70;99.90;;;;;;2609995;54;20656;-74
2023/05/09 21:48:00;;;;;;;4.93;4.30;;;13.50;99.90;;;;;;2611947;39;20531;-75
2023/05/09 21:53:49;;;;;;;6.30;4.60;;;13.60;99.90;;;;;;2611437;54;20142;-75
2023/05/09 21:59:36;;;;;;;11.50;5.17;;;13.60;99.90;;;;;;2611950;54;20697;-75
2023/05/09 22:02:41;;;;;;;6.83;5.90;;;13.50;99.90;;;;;;2611888;54;20399;-74
2023/05/09 22:05:07;;;;;;;8.63;5.70;;;13.50;99.90;;;;;;2612288;54;20162;-75
2023/05/09 22:10:55;;;;;;;6.93;6.13;;;13.50;99.90;;;;;;2613892;54;20406;-74
2023/05/09 22:16:43;;;;;;;9.33;7.13;;;13.50;99.90;;;;;;2614302;54;20126;-74
2023/05/09 22:22:32;;;;;;;9.27;6.33;;;13.50;99.90;;;;;;2610734;54;20131;-75
2023/05/09 22:28:19;;;;;;;9.43;7.40;;;13.50;99.90;;;;;;2611297;31;20822;-75
2023/05/09 22:34:07;;;;;;;8.93;6.33;;;13.50;99.90;;;;;;2611083;39;20455;-74
2023/05/09 22:39:55;;;;;;;9.10;6.10;;;13.50;99.90;;;;;;2612463;54;20657;-76
2023/05/09 22:45:43;;;;;;;8.43;6.03;;;13.50;99.90;;;;;;2611687;54;20131;-75
2023/05/09 22:51:31;;;;;;;7.17;4.70;;;13.60;99.90;;;;;;2611650;39;20201;-74
2023/05/09 22:57:19;;;;;;;8.20;4.77;;;13.50;99.90;;;;;;2609423;54;20511;-73
2023/05/09 23:07:09;;;;;;;7.23;5.30;;;13.50;99.90;;;;;;2611976;54;20968;-75
2023/05/09 23:12:57;;;;;;;7.80;5.97;;;13.40;99.90;;;;;;2611943;54;20471;-75
2023/05/09 23:18:45;;;;;;;8.30;5.97;;;13.40;99.90;;;;;;2610629;54;20178;-74
2023/05/09 23:24:33;;;;;;;6.63;4.83;;;13.40;99.90;;;;;;2610565;54;20137;-75
2023/05/09 23:30:21;;;;;;;6.93;5.60;;;13.50;99.90;;;;;;2611979;54;20983;-75
2023/05/09 23:36:08;;;;;;;12.53;6.80;;;13.40;99.90;;;;;;2612726;54;20138;-74
2023/05/09 23:41:57;;;;;;;11.60;7.00;;;13.40;99.90;;;;;;2611344;54;20134;-75
2023/05/09 23:47:44;;;;;;;9.00;6.40;;;13.40;99.90;;;;;;2611032;54;20495;-75
2023/05/09 23:53:33;;;;;;;8.20;6.20;;;13.30;99.90;;;;;;2609236;54;20134;-75
2023/05/09 23:59:21;;;;;;;13.20;7.70;;;13.30;99.90;;;;;;2610865;39;20854;-75
